»·PEaware :: N180NY L35-KWJF

N180NY :: L35-KWJF

FLIGHT INFORMATION

Flight Status: Arrived
Operator: Privately registered:
United States
More flights under this callsign
Pilot: Jari J. (4222)
Aircraft: CESSNA 172 SKYHAWK
(C172)
More flights by this aircraft type
Origin: L35 Big Bear City
United States
Destination: KWJF Gen Fox
United States
More flights between these airports :: More routes between these airports
Route: DCT
File this flight plan on PilotEdge
Remarks:
Altitude:
(Current/Filed)
2,000ft
Speed:
(Current/Filed)
100kts
Departed: 27-Jun-14 01:47 PM
Arrived: 27-Jun-14 02:39 PM
Distance/Time
Traveled:
73nm/0:52
Distance/Time
To Go:
Arrived

Flight Plot

Page will automatically refresh every two minutes.


Map Options




Map Legend


Flown Route
Filed Route
Departure Airport
Arrival Airport
Navaid (VOR, NDB)
Fix

Horizontal Profiles

Position Reports

Time Latitude Longitude Heading Altitude Ground
Speed
27-Jun-14 13:39 34.263111 -116.849433 0 6751ft 0kts
27-Jun-14 13:40 34.263113 -116.849433 0 6751ft 0kts
27-Jun-14 13:41 34.263283 -116.849318 78 6751ft 2kts
27-Jun-14 13:42 34.263293 -116.846478 79 6751ft 5kts
27-Jun-14 13:43 34.263420 -116.846395 355 6751ft 0kts
27-Jun-14 13:44 34.263425 -116.846395 355 6751ft 0kts
27-Jun-14 13:45 34.263687 -116.846402 356 6751ft 6kts
27-Jun-14 13:46 34.263902 -116.859501 264 7069ft 62kts
27-Jun-14 13:47 34.261508 -116.881051 256 7683ft 71kts
27-Jun-14 13:48 34.258565 -116.906358 259 8153ft 76kts
27-Jun-14 13:49 34.255243 -116.931230 258 8515ft 81kts
27-Jun-14 13:50 34.267556 -116.958863 299 8506ft 97kts
27-Jun-14 13:51 34.279864 -116.982699 309 8550ft 80kts
27-Jun-14 13:52 34.295208 -117.007472 295 8510ft 100kts
27-Jun-14 13:53 34.306132 -117.037409 293 8488ft 92kts
27-Jun-14 13:54 34.314830 -117.067282 292 8307ft 102kts
27-Jun-14 13:55 34.324242 -117.099167 292 7596ft 100kts
27-Jun-14 13:56 34.334559 -117.130989 292 6909ft 104kts
27-Jun-14 13:57 34.342974 -117.158774 293 6821ft 78kts
27-Jun-14 13:58 34.350509 -117.185191 295 6783ft 84kts
27-Jun-14 13:59 34.358979 -117.214308 294 6292ft 95kts
27-Jun-14 14:00 34.367459 -117.241515 294 5859ft 98kts
27-Jun-14 14:01 34.378066 -117.276491 294 5279ft 97kts
27-Jun-14 14:02 34.389448 -117.305742 293 4799ft 94kts
27-Jun-14 14:03 34.400354 -117.335652 291 4385ft 87kts
27-Jun-14 14:04 34.409145 -117.360874 291 4898ft 84kts
27-Jun-14 14:05 34.417945 -117.388012 290 5210ft 93kts
27-Jun-14 14:06 34.427195 -117.417569 289 5216ft 94kts
27-Jun-14 14:07 34.436434 -117.447486 289 5214ft 94kts
27-Jun-14 14:08 34.445836 -117.477830 290 5221ft 99kts
27-Jun-14 14:09 34.456216 -117.509884 290 5217ft 98kts
27-Jun-14 14:10 34.465773 -117.540077 290 5212ft 95kts
27-Jun-14 14:11 34.475137 -117.569879 289 5210ft 95kts
27-Jun-14 14:12 34.484462 -117.599977 289 5219ft 95kts
27-Jun-14 14:13 34.493762 -117.630404 290 5227ft 95kts
27-Jun-14 14:14 34.502391 -117.657023 290 5221ft 102kts
27-Jun-14 14:15 34.512266 -117.687484 288 5226ft 86kts
27-Jun-14 14:16 34.521021 -117.716574 289 5227ft 101kts
27-Jun-14 14:17 34.530634 -117.747822 290 5229ft 94kts
27-Jun-14 14:18 34.539489 -117.776156 291 5239ft 85kts
27-Jun-14 14:19 34.547773 -117.803705 292 5242ft 91kts
27-Jun-14 14:20 34.556571 -117.832997 294 5239ft 92kts
27-Jun-14 14:21 34.566641 -117.863821 294 5247ft 106kts
27-Jun-14 14:22 34.577654 -117.897399 293 5230ft 103kts
27-Jun-14 14:23 34.587465 -117.928773 295 5231ft 95kts
27-Jun-14 14:24 34.597675 -117.960049 295 5236ft 109kts
27-Jun-14 14:25 34.608831 -117.994249 294 5240ft 105kts
27-Jun-14 14:26 34.621093 -118.023745 285 5263ft 94kts
27-Jun-14 14:27 34.633688 -118.050203 323 4979ft 91kts
27-Jun-14 14:28 34.653757 -118.065079 329 4052ft 72kts
27-Jun-14 14:29 34.669421 -118.075518 309 3672ft 59kts
27-Jun-14 14:30 34.682515 -118.087561 309 3422ft 54kts
27-Jun-14 14:31 34.693873 -118.100354 307 3426ft 56kts
27-Jun-14 14:32 34.707972 -118.112007 311 3722ft 59kts
27-Jun-14 14:33 34.722093 -118.126611 316 3675ft 69kts
27-Jun-14 14:34 34.738495 -118.138469 317 3728ft 73kts
27-Jun-14 14:35 34.742492 -118.157445 260 3123ft 85kts
27-Jun-14 14:36 34.748041 -118.182316 273 2737ft 80kts
27-Jun-14 14:37 34.744592 -118.204442 266 2431ft 71kts
27-Jun-14 14:38 34.741319 -118.215204 182 2351ft 1kts
27-Jun-14 14:39 34.741180 -118.215259 226 2351ft 0kts

Navigation Log

Ident Type
Flight plan parsing failed, navigation log unavailable